KCYS/CYS METAR and TAF weather

Enter ICAO airport designator
Station Type Date Time Source
KCYS METAR 2020/04/06 06:53 UTC NOAA

KCYS 060653Z AUTO 28006KT 10SM CLR 04/M06 A2984 RMK AO2 SLP056 T00391061 401781028


Station Type Date Time Source
KCYS Decoded METAR 2020/04/06 06:53 UTC NOAA

CHEYENNE AIRPORT, WY, United States (KCYS) 41-09N 104-48W 1865M
Apr 06, 2020 - 02:53 AM EDT / 2020.04.06 0653 UTC
Wind: from the W (280 degrees) at 7 MPH (6 KT):0
Visibility: 10 mile(s):0
Sky conditions: clear
Temperature: 39.0 F (3.9 C)
Dew Point: 21.0 F (-6.1 C)
Relative Humidity: 48%
Pressure (altimeter): 29.84 in. Hg (1010 hPa)
ob: KCYS 060653Z AUTO 28006KT 10SM CLR 04/M06 A2984 RMK AO2 SLP056 T00391061 401781028
cycle: 7

Station Type Date Time Source
KCYS TAF 2020/04/06 06:24 UTC NOAA

TAF KCYS 060522Z 0606/0706 26009KT P6SM BKN150
FM061500 25017G28KT P6SM SCT150
FM070100 26010KT P6SM SCT150

Example: see airport list